Time;durP1;ratioP1;P1;durP2;ratioP2;P2;SDS_P1;SDS_P2;PMS_P1;PMS_P2;Temp;Humidity;BMP_temperature;BMP_pressure;BME280_temperature;BME280_humidity;BME280_pressure;Samples;Min_cycle;Max_cycle;Signal;HPM_P1;HPM_P2
2024/03/06 00:01:42;;;;;;;12.50;11.23;;;;;;;4.22;100.00;101748.28;5089617;28;20066;-39
2024/03/06 00:04:07;;;;;;;11.80;10.60;;;;;;;4.24;100.00;101757.00;5090230;28;20036;-39
2024/03/06 00:06:33;;;;;;;12.03;10.87;;;;;;;4.20;100.00;101759.19;5080444;28;20448;-39
2024/03/06 00:08:58;;;;;;;12.17;10.97;;;;;;;4.17;100.00;101753.31;5076809;28;20017;-39
2024/03/06 00:11:23;;;;;;;11.87;10.67;;;;;;;4.06;100.00;101751.81;5076251;28;20020;-39
2024/03/06 00:13:49;;;;;;;11.83;10.63;;;;;;;4.08;100.00;101765.84;5076118;28;20033;-40
2024/03/06 00:16:14;;;;;;;14.47;12.50;;;;;;;4.04;100.00;101762.66;5076136;28;20024;-39
2024/03/06 00:18:40;;;;;;;13.10;11.70;;;;;;;3.88;100.00;101765.31;5075814;28;20017;-40
2024/03/06 00:21:06;;;;;;;11.75;10.15;;;;;;;3.94;100.00;101777.19;5076260;28;20350;-40
2024/03/06 00:23:32;;;;;;;29.73;25.90;;;;;;;3.99;100.00;101766.84;5075972;28;20029;-40
2024/03/06 00:25:57;;;;;;;16.38;14.70;;;;;;;3.99;100.00;101778.38;5075933;28;20101;-40
2024/03/06 00:28:22;;;;;;;32.90;29.30;;;;;;;4.11;100.00;101770.88;5076247;28;20024;-40
2024/03/06 00:30:48;;;;;;;18.33;16.27;;;;;;;4.07;100.00;101781.06;5075884;28;20025;-39
2024/03/06 00:33:14;;;;;;;14.70;12.90;;;;;;;3.98;100.00;101770.53;5075897;28;20029;-39
2024/03/06 00:35:39;;;;;;;19.38;17.25;;;;;;;4.04;100.00;101783.25;5075931;28;20032;-40
2024/03/06 00:38:04;;;;;;;20.50;18.23;;;;;;;4.05;100.00;101772.38;5076356;28;20390;-40
2024/03/06 00:40:33;;;;;;;25.50;21.60;;;;;;;4.10;100.00;101774.56;5076248;28;20078;-40
2024/03/06 00:42:58;;;;;;;16.27;14.63;;;;;;;3.92;100.00;101766.69;5075922;28;20029;-40
2024/03/06 00:45:24;;;;;;;15.63;13.90;;;;;;;3.95;100.00;101778.88;5075957;28;20033;-40
2024/03/06 00:47:49;;;;;;;22.88;19.52;;;;;;;4.02;100.00;101782.59;5076401;28;20488;-40
2024/03/06 00:50:16;;;;;;;35.38;30.25;;;;;;;4.04;100.00;101784.06;5075831;28;20107;-40
2024/03/06 00:52:42;;;;;;;18.58;16.60;;;;;;;3.99;100.00;101796.28;5075399;28;20449;-40
2024/03/06 00:55:08;;;;;;;;;;;;;;;4.10;100.00;101794.16;5076788;28;20102;-40
2024/03/06 00:57:34;;;;;;;18.17;16.13;;;;;;;3.93;100.00;101778.22;5075309;28;19912;-40
2024/03/06 00:59:59;;;;;;;14.20;12.73;;;;;;;3.95;100.00;101789.56;5075872;28;20094;-40
2024/03/06 01:02:25;;;;;;;16.53;14.67;;;;;;;3.90;100.00;101805.28;5074016;28;20149;-40
2024/03/06 01:04:50;;;;;;;16.75;14.18;;;;;;;3.78;100.00;101796.75;5075196;28;20035;-40
2024/03/06 01:07:15;;;;;;;14.73;13.17;;;;;;;3.73;100.00;101786.53;5075481;28;20103;-39
2024/03/06 01:09:41;;;;;;;31.77;28.27;;;;;;;3.91;100.00;101804.31;5075109;28;20029;-39
2024/03/06 01:12:06;;;;;;;27.63;24.73;;;;;;;3.91;100.00;101809.66;5074968;28;20056;-39
2024/03/06 01:14:32;;;;;;;20.50;18.33;;;;;;;3.87;100.00;101799.28;5074611;28;20028;-39
2024/03/06 01:16:57;;;;;;;15.07;13.17;;;;;;;3.82;100.00;101806.13;5074127;28;20043;-39
2024/03/06 01:19:23;;;;;;;15.70;12.70;;;;;;;3.82;100.00;101809.63;5074161;28;20067;-39
2024/03/06 01:21:48;;;;;;;26.38;23.05;;;;;;;3.79;100.00;101809.94;5075062;28;20020;-39
2024/03/06 01:24:14;;;;;;;25.23;22.67;;;;;;;3.87;100.00;101811.81;5075100;28;20040;-39
2024/03/06 01:26:40;;;;;;;26.02;22.92;;;;;;;3.87;100.00;101825.19;5074363;28;20040;-39
2024/03/06 01:29:06;;;;;;;33.65;29.27;;;;;;;3.87;100.00;101827.88;5075189;28;20016;-39
2024/03/06 01:31:31;;;;;;;21.13;18.85;;;;;;;3.77;100.00;101833.38;5073396;28;20020;-39
2024/03/06 01:33:56;;;;;;;14.83;13.40;;;;;;;3.68;100.00;101828.97;5074863;28;20479;-39
2024/03/06 01:36:22;;;;;;;15.53;13.43;;;;;;;3.75;100.00;101823.81;5075345;28;20098;-39
2024/03/06 01:38:47;;;;;;;26.97;23.53;;;;;;;3.72;100.00;101813.47;5074774;28;20024;-39
2024/03/06 01:41:14;;;;;;;28.67;23.40;;;;;;;3.82;100.00;101824.84;5075248;28;20024;-39
2024/03/06 01:43:40;;;;;;;16.92;15.15;;;;;;;3.75;100.00;101827.31;5074669;28;20032;-39
2024/03/06 01:46:06;;;;;;;22.35;19.63;;;;;;;3.86;100.00;101829.72;5074585;28;20445;-39
2024/03/06 01:48:32;;;;;;;22.88;20.25;;;;;;;3.83;100.00;101827.34;5074635;28;20455;-39
2024/03/06 01:51:01;;;;;;;21.95;19.70;;;;;;;3.87;100.00;101834.06;5074484;28;20070;-39
2024/03/06 01:53:30;;;;;;;17.08;15.35;;;;;;;3.92;100.00;101843.44;5074814;28;20062;-39
2024/03/06 01:55:56;;;;;;;15.88;14.05;;;;;;;3.88;100.00;101829.53;5074057;28;20384;-40
2024/03/06 01:58:23;;;;;;;16.98;15.20;;;;;;;3.88;100.00;101832.22;5074115;28;20082;-39
2024/03/06 02:00:50;;;;;;;15.10;13.57;;;;;;;3.89;100.00;101839.25;5074061;28;20368;-39
2024/03/06 02:03:15;;;;;;;24.48;21.90;;;;;;;4.03;100.00;101848.47;5073773;28;20061;-39
2024/03/06 02:05:41;;;;;;;17.58;15.77;;;;;;;3.88;100.00;101824.19;5074507;28;20025;-40
2024/03/06 02:08:07;;;;;;;16.55;14.75;;;;;;;3.94;100.00;101846.78;5074609;28;20134;-39
2024/03/06 02:10:34;;;;;;;20.80;18.65;;;;;;;4.00;100.00;101847.00;5074230;28;20017;-39
2024/03/06 02:12:59;;;;;;;26.08;23.17;;;;;;;4.09;100.00;101847.81;5073820;28;20020;-39
2024/03/06 02:15:25;;;;;;;31.20;27.25;;;;;;;4.20;100.00;101850.22;5074410;28;20020;-40
2024/03/06 02:17:52;;;;;;;28.33;25.38;;;;;;;4.24;100.00;101848.84;5073806;28;20025;-40
2024/03/06 02:20:22;;;;;;;23.42;21.08;;;;;;;4.21;100.00;101848.38;5073527;28;20031;-40
2024/03/06 02:22:47;;;;;;;23.08;20.65;;;;;;;4.20;100.00;101860.91;5073981;28;20029;-40
2024/03/06 02:25:13;;;;;;;28.33;25.23;;;;;;;4.23;100.00;101844.50;5074032;28;20456;-39
2024/03/06 02:27:38;;;;;;;27.95;25.10;;;;;;;4.28;100.00;101852.03;5073860;28;20020;-39
2024/03/06 02:30:04;;;;;;;23.17;20.75;;;;;;;4.28;100.00;101850.19;5073481;28;20097;-39
2024/03/06 02:32:30;;;;;;;25.25;22.52;;;;;;;4.28;100.00;101858.25;5074159;28;20024;-40
2024/03/06 02:34:55;;;;;;;17.38;15.43;;;;;;;4.18;100.00;101867.44;5073785;28;20024;-39
2024/03/06 02:37:22;;;;;;;24.40;21.80;;;;;;;4.27;100.00;101867.28;5073537;28;20028;-39
2024/03/06 02:39:47;;;;;;;17.63;15.82;;;;;;;4.17;100.00;101860.41;5073304;28;20032;-40
2024/03/06 02:42:12;;;;;;;15.27;13.67;;;;;;;4.13;100.00;101859.88;5073820;28;20020;-40
2024/03/06 02:44:38;;;;;;;24.33;21.73;;;;;;;4.22;100.00;101852.72;5073727;28;20033;-40
2024/03/06 02:47:03;;;;;;;23.10;19.73;;;;;;;4.24;100.00;101856.88;5074043;28;20043;-39
2024/03/06 02:49:29;;;;;;;22.58;20.25;;;;;;;4.33;100.00;101849.72;5074016;28;20021;-39
2024/03/06 02:51:55;;;;;;;27.08;23.45;;;;;;;4.42;100.00;101864.78;5073710;28;20024;-39
2024/03/06 02:54:20;;;;;;;27.20;24.40;;;;;;;4.44;100.00;101845.88;5073437;28;20083;-39
2024/03/06 02:56:46;;;;;;;26.20;23.48;;;;;;;4.53;100.00;101855.59;5073356;28;20060;-39
2024/03/06 02:59:11;;;;;;;17.60;15.83;;;;;;;4.34;100.00;101846.88;5073712;28;20024;-39
2024/03/06 03:01:36;;;;;;;21.37;19.10;;;;;;;4.48;100.00;101860.59;5073358;28;20104;-39
2024/03/06 03:04:02;;;;;;;16.98;15.20;;;;;;;4.47;100.00;101866.97;5073092;28;20020;-39
2024/03/06 03:06:29;;;;;;;17.77;15.93;;;;;;;4.44;100.00;101868.16;5073063;28;20032;-39
2024/03/06 03:08:56;;;;;;;16.83;15.13;;;;;;;4.41;100.00;101860.44;5073472;28;20013;-39
2024/03/06 03:11:21;;;;;;;17.67;15.85;;;;;;;4.48;100.00;101863.28;5072914;28;20028;-39
2024/03/06 03:13:46;;;;;;;19.63;17.63;;;;;;;4.48;100.00;101858.75;5073158;28;20020;-39
2024/03/06 03:16:17;;;;;;;26.23;23.43;;;;;;;4.44;100.00;101851.22;5072848;28;20342;-39
2024/03/06 03:18:43;;;;;;;23.42;21.00;;;;;;;4.48;100.00;101857.94;5073686;28;20289;-39
2024/03/06 03:21:09;;;;;;;27.15;24.40;;;;;;;4.54;100.00;101867.97;5073139;28;20056;-39
2024/03/06 03:23:36;;;;;;;20.48;18.17;;;;;;;4.45;100.00;101864.47;5072929;28;20077;-40
2024/03/06 03:26:03;;;;;;;24.52;21.85;;;;;;;4.50;100.00;101862.13;5072798;28;20029;-40
2024/03/06 03:28:29;;;;;;;23.38;19.35;;;;;;;4.47;100.00;101865.13;5072826;28;20108;-40
2024/03/06 03:30:54;;;;;;;19.48;17.50;;;;;;;4.41;100.00;101865.81;5073096;28;20154;-39
2024/03/06 03:33:20;;;;;;;18.83;16.90;;;;;;;4.51;100.00;101871.00;5073604;28;20119;-40
2024/03/06 03:35:45;;;;;;;26.63;23.80;;;;;;;4.54;100.00;101874.19;5072888;28;20452;-44
2024/03/06 03:38:10;;;;;;;20.77;18.70;;;;;;;4.47;100.00;101870.47;5072723;28;20024;-40
2024/03/06 03:40:36;;;;;;;21.80;19.60;;;;;;;4.47;100.00;101875.84;5073613;28;20028;-39
2024/03/06 03:43:06;;;;;;;22.00;19.80;;;;;;;4.38;100.00;101866.94;5076478;28;20120;-39
2024/03/06 03:45:31;;;;;;;18.15;16.33;;;;;;;4.37;100.00;101872.47;5076421;28;20028;-40
2024/03/06 03:47:57;;;;;;;21.70;19.40;;;;;;;4.42;100.00;101877.34;5076612;28;20028;-40
2024/03/06 03:50:22;;;;;;;22.40;19.17;;;;;;;4.41;100.00;101889.06;5077823;28;20032;-39
2024/03/06 03:52:47;;;;;;;19.97;17.93;;;;;;;4.35;100.00;101879.84;5076254;28;20024;-39
2024/03/06 03:55:13;;;;;;;19.23;17.27;;;;;;;4.34;100.00;101875.47;5076752;28;20052;-39
2024/03/06 03:57:38;;;;;;;19.90;17.87;;;;;;;4.30;100.00;101888.38;5076440;28;20451;-39
2024/03/06 04:00:10;;;;;;;20.97;18.17;;;;;;;4.33;100.00;101889.88;5076662;28;20067;-39
2024/03/06 04:02:36;;;;;;;20.02;16.67;;;;;;;4.22;100.00;101880.31;5076349;28;20033;-39
2024/03/06 04:05:01;;;;;;;17.80;16.05;;;;;;;4.22;100.00;101884.84;5076831;28;20032;-39
2024/03/06 04:07:27;;;;;;;17.20;15.50;;;;;;;4.22;100.00;101887.53;5076223;28;20051;-39
2024/03/06 04:09:52;;;;;;;21.77;19.47;;;;;;;4.27;100.00;101888.69;5076464;28;20043;-40
2024/03/06 04:12:17;;;;;;;18.77;16.63;;;;;;;4.25;100.00;101890.72;5076229;28;20031;-39
2024/03/06 04:14:42;;;;;;;18.03;16.10;;;;;;;4.15;100.00;101879.31;5076152;28;20032;-39
2024/03/06 04:17:08;;;;;;;21.23;19.03;;;;;;;4.31;100.00;101889.22;5076088;28;20020;-39
2024/03/06 04:19:33;;;;;;;20.90;18.70;;;;;;;4.27;100.00;101887.88;5076435;28;20059;-39
2024/03/06 04:21:59;;;;;;;20.97;18.77;;;;;;;4.22;100.00;101884.84;5075763;28;20020;-39
2024/03/06 04:24:24;;;;;;;18.23;16.42;;;;;;;4.14;100.00;101888.31;5075909;28;20039;-39
2024/03/06 04:26:49;;;;;;;19.07;17.07;;;;;;;4.10;100.00;101887.00;5076006;28;20028;-39
2024/03/06 04:29:15;;;;;;;19.30;17.37;;;;;;;4.06;100.00;101891.84;5076481;28;20039;-39
2024/03/06 04:31:41;;;;;;;16.42;14.73;;;;;;;3.87;100.00;101879.56;5076123;28;20052;-40
2024/03/06 04:34:06;;;;;;;16.10;14.40;;;;;;;3.92;100.00;101891.63;5075977;28;20085;-40
2024/03/06 04:36:32;;;;;;;18.40;16.40;;;;;;;3.92;100.00;101878.25;5075655;28;20360;-40
2024/03/06 04:38:57;;;;;;;15.77;14.20;;;;;;;3.91;100.00;101897.97;5076205;28;20044;-39
2024/03/06 04:41:23;;;;;;;17.05;15.30;;;;;;;3.89;100.00;101906.16;5075219;28;20024;-39
2024/03/06 04:43:50;;;;;;;19.38;17.38;;;;;;;3.93;100.00;101906.66;5075709;28;20025;-39
2024/03/06 04:46:15;;;;;;;17.88;16.08;;;;;;;3.90;100.00;101901.63;5075429;28;20025;-39
2024/03/06 04:48:41;;;;;;;18.23;16.43;;;;;;;3.80;100.00;101905.25;5075850;28;20027;-39
2024/03/06 04:51:06;;;;;;;19.08;17.08;;;;;;;3.90;100.00;101917.69;5075421;28;20089;-39
2024/03/06 04:53:32;;;;;;;19.60;17.63;;;;;;;3.92;100.00;101923.72;5075089;28;20055;-39
2024/03/06 04:55:57;;;;;;;17.70;15.97;;;;;;;3.86;100.00;101923.38;5075683;28;20126;-39
2024/03/06 04:58:22;;;;;;;16.67;14.97;;;;;;;3.68;100.00;101919.09;5075323;28;20032;-39
2024/03/06 05:00:48;;;;;;;17.90;15.93;;;;;;;3.70;100.00;101917.94;5074894;28;20028;-39
2024/03/06 05:03:15;;;;;;;18.17;16.17;;;;;;;3.74;100.00;101935.34;5075288;28;20338;-39
2024/03/06 05:05:40;;;;;;;19.58;17.50;;;;;;;3.79;100.00;101937.53;5075413;28;20111;-39
2024/03/06 05:08:06;;;;;;;15.83;14.23;;;;;;;3.68;100.00;101941.34;5075732;28;20407;-39
2024/03/06 05:10:32;;;;;;;20.48;16.25;;;;;;;3.76;100.00;101940.56;5075338;28;20016;-39
2024/03/06 05:12:57;;;;;;;16.27;14.68;;;;;;;3.63;100.00;101949.00;5075515;28;20035;-39
2024/03/06 05:15:23;;;;;;;16.03;14.13;;;;;;;3.65;100.00;101954.19;5075215;28;20406;-39
2024/03/06 05:17:48;;;;;;;19.20;17.23;;;;;;;3.72;100.00;101953.41;5074892;28;20456;-39
2024/03/06 05:20:14;;;;;;;16.90;15.10;;;;;;;3.48;100.00;101945.22;5075182;28;20453;-39
2024/03/06 05:22:39;;;;;;;16.98;15.25;;;;;;;3.63;100.00;101959.69;5074736;28;20017;-39
2024/03/06 05:25:05;;;;;;;17.17;15.50;;;;;;;3.67;100.00;101971.78;5075129;28;20025;-39
2024/03/06 05:27:31;;;;;;;18.38;15.63;;;;;;;3.72;100.00;101965.94;5074613;28;20082;-39
2024/03/06 05:29:57;;;;;;;;;;;;;;;3.78;100.00;101971.47;5075631;28;20016;-39
2024/03/06 05:32:22;;;;;;;14.68;13.27;;;;;;;3.72;100.00;101968.63;5075092;28;19910;-39
2024/03/06 05:34:48;;;;;;;14.53;13.03;;;;;;;3.65;100.00;101973.75;5074504;28;20103;-39
2024/03/06 05:37:13;;;;;;;14.73;12.82;;;;;;;3.64;100.00;101977.41;5074511;28;20266;-39
2024/03/06 05:39:39;;;;;;;14.90;12.47;;;;;;;3.65;100.00;101973.75;5075376;28;20025;-39
2024/03/06 05:42:05;;;;;;;14.25;12.85;;;;;;;3.63;100.00;101970.41;5074715;28;20055;-39
2024/03/06 05:44:31;;;;;;;15.60;14.05;;;;;;;3.60;100.00;101978.72;5074472;28;20024;-39
2024/03/06 05:47:01;;;;;;;14.55;13.10;;;;;;;3.60;100.00;101990.25;5074301;28;20039;-39
2024/03/06 05:49:27;;;;;;;18.27;12.82;;;;;;;3.54;100.00;101987.38;5074302;28;20028;-41
2024/03/06 05:51:53;;;;;;;27.20;11.90;;;;;;;3.47;100.00;101981.00;5074205;28;20021;-39
2024/03/06 05:54:20;;;;;;;22.50;11.90;;;;;;;3.50;100.00;101996.72;5073908;28;20050;-39
2024/03/06 05:56:48;;;;;;;15.18;12.70;;;;;;;3.52;100.00;102000.09;5074147;28;20452;-39
2024/03/06 05:59:13;;;;;;;32.28;11.77;;;;;;;3.42;100.00;101994.00;5074128;28;20065;-39
2024/03/06 06:01:39;;;;;;;33.30;11.77;;;;;;;3.43;100.00;102009.03;5074083;28;20032;-39
2024/03/06 06:04:04;;;;;;;15.10;9.97;;;;;;;3.42;100.00;102015.41;5074157;28;20031;-40
2024/03/06 06:06:30;;;;;;;12.90;10.43;;;;;;;3.43;100.00;102017.91;5074529;28;20025;-40
2024/03/06 06:08:55;;;;;;;14.70;11.68;;;;;;;3.47;100.00;102018.44;5073980;28;20406;-40
2024/03/06 06:11:20;;;;;;;12.40;11.13;;;;;;;3.48;100.00;102017.44;5074152;28;20028;-40
2024/03/06 06:13:46;;;;;;;17.73;11.40;;;;;;;3.45;100.00;102020.41;5074056;28;20077;-40
2024/03/06 06:16:12;;;;;;;15.77;11.27;;;;;;;3.43;100.00;102022.41;5074554;28;20032;-40
2024/03/06 06:18:41;;;;;;;12.00;10.60;;;;;;;3.40;100.00;102028.91;5073881;28;20016;-40
2024/03/06 06:21:07;;;;;;;14.60;10.65;;;;;;;3.33;100.00;102026.00;5073952;28;20165;-40
2024/03/06 06:23:33;;;;;;;11.70;10.48;;;;;;;3.43;100.00;102038.47;5073731;28;20021;-40
2024/03/06 06:25:59;;;;;;;20.73;10.57;;;;;;;3.39;100.00;102037.09;5073465;28;20529;-39
2024/03/06 06:28:24;;;;;;;22.83;10.57;;;;;;;3.38;100.00;102035.41;5074175;28;20024;-39
2024/03/06 06:30:52;;;;;;;19.13;10.37;;;;;;;3.30;100.00;102031.66;5074109;28;20032;-39
2024/03/06 06:33:18;;;;;;;15.25;11.18;;;;;;;3.30;100.00;102045.03;5074438;28;20024;-39
2024/03/06 06:35:44;;;;;;;15.82;10.95;;;;;;;3.20;100.00;102030.06;5072025;28;20028;-39
2024/03/06 06:38:09;;;;;;;12.67;11.30;;;;;;;3.36;100.00;102046.25;5074128;28;20093;-40
2024/03/06 06:40:36;;;;;;;11.80;10.30;;;;;;;3.36;100.00;102052.44;5074151;28;20688;-38
2024/03/06 06:43:01;;;;;;;12.60;11.40;;;;;;;3.28;100.00;102047.03;5073470;28;20113;-38
2024/03/06 06:45:26;;;;;;;13.25;11.95;;;;;;;3.43;100.00;102055.34;5074006;28;20021;-39
2024/03/06 06:47:53;;;;;;;12.40;11.23;;;;;;;3.43;100.00;102051.84;5073491;28;20487;-39
2024/03/06 06:50:21;;;;;;;;;;;;;;;3.52;100.00;102059.78;5074389;28;20443;-38
2024/03/06 06:52:47;;;;;;;10.95;9.95;;;;;;;3.44;100.00;102062.38;5073094;28;19904;-38
2024/03/06 06:55:13;;;;;;;12.50;11.27;;;;;;;3.46;100.00;102059.53;5073819;28;20337;-38
2024/03/06 06:57:38;;;;;;;13.05;11.85;;;;;;;3.54;100.00;102070.31;5073551;28;20012;-39
2024/03/06 07:00:16;;;;;;;12.15;11.10;;;;;;;3.40;100.00;102058.31;5073884;28;20360;-39
2024/03/06 07:02:44;;;;;;;13.68;12.27;;;;;;;3.47;100.00;102070.09;5073313;28;20122;-38
2024/03/06 07:05:10;;;;;;;13.25;11.95;;;;;;;3.64;100.00;102095.13;5074117;28;20403;-39
2024/03/06 07:07:36;;;;;;;12.88;11.68;;;;;;;3.60;100.00;102091.91;5073845;28;20020;-39
2024/03/06 07:10:03;;;;;;;12.93;11.65;;;;;;;3.62;100.00;102097.13;5073252;28;20024;-39
2024/03/06 07:12:28;;;;;;;15.18;11.15;;;;;;;3.64;100.00;102097.78;5073172;28;20084;-39
2024/03/06 07:14:54;;;;;;;13.10;11.90;;;;;;;3.72;100.00;102103.22;5073204;28;20529;-39
2024/03/06 07:17:19;;;;;;;12.63;11.43;;;;;;;3.74;100.00;102105.72;5076364;28;20337;-39
2024/03/06 07:19:44;;;;;;;12.33;11.03;;;;;;;3.76;100.00;102101.91;5076882;28;20125;-39
2024/03/06 07:22:10;;;;;;;12.30;11.17;;;;;;;3.94;100.00;102112.56;5077149;28;20059;-39
2024/03/06 07:24:36;;;;;;;12.65;11.43;;;;;;;4.07;100.00;102113.00;5076803;28;20025;-39
2024/03/06 07:27:02;;;;;;;13.00;11.73;;;;;;;3.97;100.00;102114.09;5077881;28;20040;-39
2024/03/06 07:29:28;;;;;;;12.60;11.40;;;;;;;4.07;100.00;102110.31;5077294;28;20107;-39
2024/03/06 07:31:56;;;;;;;11.75;10.65;;;;;;;4.14;100.00;102118.56;5076911;28;20022;-39
2024/03/06 07:34:22;;;;;;;12.05;10.95;;;;;;;4.17;100.00;102123.59;5076977;28;20021;-39
2024/03/06 07:36:48;;;;;;;12.13;10.93;;;;;;;4.19;100.00;102124.28;5076614;28;20032;-39
2024/03/06 07:39:18;;;;;;;12.48;11.25;;;;;;;4.23;100.00;102122.97;5077101;28;20032;-39
2024/03/06 07:41:44;;;;;;;11.55;10.55;;;;;;;4.23;100.00;102128.31;5077176;28;20029;-39
2024/03/06 07:44:09;;;;;;;12.20;11.10;;;;;;;4.35;100.00;102119.03;5076806;28;20038;-39
2024/03/06 07:46:35;;;;;;;11.70;10.50;;;;;;;4.42;100.00;102132.63;5076605;28;20111;-39
2024/03/06 07:49:02;;;;;;;11.82;10.80;;;;;;;4.43;100.00;102136.13;5076426;28;20023;-39
2024/03/06 07:51:31;;;;;;;12.25;11.05;;;;;;;4.45;100.00;102139.50;5077305;28;20111;-39
2024/03/06 07:53:57;;;;;;;11.75;10.75;;;;;;;4.45;100.00;102136.84;5076583;28;20041;-38
2024/03/06 07:56:24;;;;;;;13.23;11.60;;;;;;;4.54;100.00;102141.22;5076505;28;20028;-39
2024/03/06 07:58:50;;;;;;;13.52;12.32;;;;;;;4.57;100.00;102140.91;5076702;28;20024;-38
2024/03/06 08:01:15;;;;;;;14.40;11.87;;;;;;;4.71;100.00;102142.97;5076420;28;20337;-39
2024/03/06 08:03:42;;;;;;;14.32;12.93;;;;;;;4.78;100.00;102146.72;5076447;28;20050;-38
2024/03/06 08:06:09;;;;;;;14.38;13.00;;;;;;;4.85;100.00;102153.09;5076807;28;20085;-38
2024/03/06 08:08:34;;;;;;;;;;;;;;;5.02;100.00;102150.47;5076382;28;20024;-39
2024/03/06 08:10:59;;;;;;;12.80;11.60;;;;;;;5.05;100.00;102155.50;5075939;28;19904;-39
2024/03/06 08:13:25;;;;;;;14.13;12.73;;;;;;;5.18;100.00;102158.56;5076028;28;20029;-39
2024/03/06 08:15:51;;;;;;;13.47;12.27;;;;;;;5.34;100.00;102157.78;5075820;28;20025;-39
2024/03/06 08:18:16;;;;;;;14.20;12.80;;;;;;;5.39;100.00;102169.69;5076413;28;20508;-39
2024/03/06 08:20:41;;;;;;;13.73;12.35;;;;;;;5.50;100.00;102165.00;5075816;28;20025;-39
2024/03/06 08:23:07;;;;;;;12.90;11.70;;;;;;;5.59;100.00;102172.06;5076598;28;20034;-39
2024/03/06 08:25:33;;;;;;;14.05;12.60;;;;;;;5.71;100.00;102172.56;5076208;28;20074;-38
2024/03/06 08:27:59;;;;;;;14.30;12.87;;;;;;;5.77;100.00;102172.75;5076025;28;20420;-38
2024/03/06 08:30:24;;;;;;;12.95;11.75;;;;;;;5.90;100.00;102182.97;5075621;28;20024;-39
2024/03/06 08:32:50;;;;;;;14.38;12.18;;;;;;;5.94;100.00;102182.50;5075857;28;20056;-39
2024/03/06 08:35:18;;;;;;;13.23;11.93;;;;;;;5.97;100.00;102191.25;5075528;28;20028;-38
2024/03/06 08:37:43;;;;;;;13.52;12.23;;;;;;;6.08;100.00;102185.53;5075467;28;20492;-39
2024/03/06 08:40:17;;;;;;;12.90;11.60;;;;;;;6.22;100.00;102192.91;5076619;28;20020;-39
2024/03/06 08:42:47;;;;;;;13.07;11.77;;;;;;;6.29;100.00;102196.59;5076259;28;20020;-39
2024/03/06 08:45:14;;;;;;;12.80;11.43;;;;;;;6.37;100.00;102201.97;5075368;28;20032;-39
2024/03/06 08:47:39;;;;;;;12.30;11.10;;;;;;;6.38;100.00;102200.94;5075279;28;20039;-39
2024/03/06 08:50:05;;;;;;;13.38;12.00;;;;;;;6.41;100.00;102184.50;5076445;28;20108;-39
2024/03/06 08:52:34;;;;;;;13.48;12.07;;;;;;;6.52;100.00;102191.34;5075973;28;20459;-39
2024/03/06 08:55:00;;;;;;;13.10;11.85;;;;;;;6.60;100.00;102195.88;5075871;28;20040;-39
2024/03/06 08:57:28;;;;;;;13.00;11.77;;;;;;;6.66;100.00;102195.19;5075092;28;20521;-39
2024/03/06 08:59:56;;;;;;;14.00;12.60;;;;;;;6.72;100.00;102199.88;5075430;28;20369;-39
2024/03/06 09:02:21;;;;;;;13.25;11.98;;;;;;;6.77;100.00;102202.88;5075288;28;20028;-39
2024/03/06 09:04:46;;;;;;;13.90;12.57;;;;;;;6.85;100.00;102196.66;5075915;28;20031;-39
2024/03/06 09:07:13;;;;;;;15.77;13.18;;;;;;;6.87;100.00;102192.75;5075024;28;20021;-39
2024/03/06 09:09:38;;;;;;;13.55;12.15;;;;;;;7.07;100.00;102208.47;5075493;28;20025;-39
2024/03/06 09:12:10;;;;;;;13.90;12.48;;;;;;;7.12;100.00;102214.16;5075933;28;20028;-40
2024/03/06 09:14:39;;;;;;;13.68;12.38;;;;;;;7.16;100.00;102221.72;5074770;28;20028;-40
2024/03/06 09:17:05;;;;;;;13.52;12.18;;;;;;;7.24;100.00;102202.03;5075080;28;20038;-40
2024/03/06 09:19:32;;;;;;;14.45;13.13;;;;;;;7.34;100.00;102218.78;5075382;28;20047;-39
2024/03/06 09:21:58;;;;;;;14.27;12.95;;;;;;;7.38;100.00;102212.03;5074940;28;20027;-39
2024/03/06 09:24:24;;;;;;;13.70;12.30;;;;;;;7.52;100.00;102223.09;5074554;28;20051;-39
2024/03/06 09:26:50;;;;;;;13.80;12.40;;;;;;;7.58;100.00;102211.59;5075092;28;20367;-39
2024/03/06 09:29:16;;;;;;;14.02;12.52;;;;;;;7.69;100.00;102219.25;5074868;28;20503;-38
2024/03/06 09:31:42;;;;;;;13.88;12.38;;;;;;;7.71;100.00;102214.53;5074460;28;20104;-38
2024/03/06 09:34:11;;;;;;;14.98;12.98;;;;;;;7.79;100.00;102225.25;5074675;28;20120;-39
2024/03/06 09:36:36;;;;;;;12.88;11.68;;;;;;;7.80;100.00;102210.75;5074620;28;20372;-39
2024/03/06 09:39:04;;;;;;;12.37;11.07;;;;;;;8.02;100.00;102230.63;5073801;28;20024;-39
2024/03/06 09:41:30;;;;;;;12.95;11.75;;;;;;;8.04;100.00;102239.38;5074436;28;20267;-39
2024/03/06 09:43:55;;;;;;;13.75;12.45;;;;;;;8.13;100.00;102227.50;5075398;28;20112;-39
2024/03/06 09:46:21;;;;;;;13.27;11.93;;;;;;;8.30;100.00;102240.88;5074226;28;20059;-39
2024/03/06 09:48:48;;;;;;;13.35;12.02;;;;;;;8.29;100.00;102242.69;5074391;28;20031;-39
2024/03/06 09:51:14;;;;;;;13.70;12.30;;;;;;;8.13;100.00;102240.16;5074286;28;20028;-39
2024/03/06 09:53:41;;;;;;;14.65;12.48;;;;;;;8.34;100.00;102245.69;5073804;28;20035;-38
2024/03/06 09:56:08;;;;;;;12.57;11.38;;;;;;;8.39;100.00;102251.41;5074495;28;20016;-38
2024/03/06 09:58:33;;;;;;;12.55;11.25;;;;;;;8.45;100.00;102260.63;5074824;28;20029;-38
2024/03/06 10:01:00;;;;;;;11.65;10.60;;;;;;;8.41;100.00;102237.75;5074248;28;20024;-39
2024/03/06 10:03:26;;;;;;;13.50;12.25;;;;;;;8.49;100.00;102265.47;5074456;28;20044;-39
2024/03/06 10:05:52;;;;;;;;;;;;;;;8.65;100.00;102266.34;5074749;28;20461;-39
2024/03/06 10:08:19;;;;;;;10.60;9.60;;;;;;;8.57;100.00;102266.41;5073780;28;19944;-39
2024/03/06 10:10:48;;;;;;;12.88;11.73;;;;;;;8.63;100.00;102260.28;5073993;28;20461;-39
2024/03/06 10:13:22;;;;;;;12.73;11.45;;;;;;;8.72;100.00;102269.97;5074163;28;20375;-39
2024/03/06 10:15:59;;;;;;;11.35;10.23;;;;;;;8.74;100.00;102258.00;5073730;28;20024;-39
2024/03/06 10:18:27;;;;;;;10.40;9.50;;;;;;;8.79;100.00;102270.09;5073856;28;20081;-39
2024/03/06 10:20:53;;;;;;;11.65;10.48;;;;;;;8.87;100.00;102267.28;5074070;28;20051;-39
2024/03/06 10:23:18;;;;;;;10.95;9.82;;;;;;;8.70;100.00;102261.25;5074047;28;20051;-39
2024/03/06 10:25:46;;;;;;;10.97;9.97;;;;;;;8.78;100.00;102258.44;5074621;28;20460;-39
2024/03/06 10:28:12;;;;;;;10.32;9.43;;;;;;;8.87;100.00;102270.81;5074221;28;20359;-39
2024/03/06 10:30:42;;;;;;;11.32;10.23;;;;;;;8.92;100.00;102259.47;5073467;28;20099;-39
2024/03/06 10:33:09;;;;;;;12.38;10.10;;;;;;;9.05;100.00;102266.94;5073926;28;20478;-39
2024/03/06 10:35:38;;;;;;;11.50;9.82;;;;;;;8.98;100.00;102269.56;5074390;28;20028;-39
2024/03/06 10:38:06;;;;;;;10.07;9.07;;;;;;;9.18;100.00;102267.13;5073827;28;20020;-39
2024/03/06 10:40:33;;;;;;;10.38;9.43;;;;;;;9.32;100.00;102263.56;5073843;28;20021;-38
2024/03/06 10:42:59;;;;;;;10.18;9.27;;;;;;;9.40;100.00;102268.03;5073541;28;20047;-39
2024/03/06 10:45:34;;;;;;;10.57;9.57;;;;;;;9.54;100.00;102265.28;5074083;28;20028;-39
2024/03/06 10:48:00;;;;;;;10.52;9.40;;;;;;;9.64;100.00;102273.09;5073189;28;20106;-39
2024/03/06 10:50:26;;;;;;;10.20;9.20;;;;;;;9.72;100.00;102273.00;5073911;28;20112;-39
2024/03/06 10:52:55;;;;;;;9.52;8.63;;;;;;;9.70;100.00;102253.41;5073173;28;20428;-38
2024/03/06 10:55:21;;;;;;;10.95;9.50;;;;;;;9.76;100.00;102276.13;5074246;28;20043;-39
2024/03/06 10:57:48;;;;;;;10.25;9.27;;;;;;;9.83;100.00;102278.91;5073379;28;20052;-39
2024/03/06 11:00:18;;;;;;;9.88;8.90;;;;;;;9.90;100.00;102275.25;5073323;28;20032;-39
2024/03/06 11:02:47;;;;;;;10.82;8.73;;;;;;;9.99;100.00;102274.09;5073601;28;20021;-39
2024/03/06 11:05:13;;;;;;;7.85;7.07;;;;;;;10.02;100.00;102276.41;5073321;28;20063;-39
2024/03/06 11:07:39;;;;;;;10.32;8.70;;;;;;;10.06;100.00;102268.78;5073247;28;20067;-39